Time;durP1;ratioP1;P1;durP2;ratioP2;P2;SDS_P1;SDS_P2;PMS_P1;PMS_P2;Temp;Humidity;BMP_temperature;BMP_pressure;BME280_temperature;BME280_humidity;BME280_pressure;Samples;Min_cycle;Max_cycle;Signal;HPM_P1;HPM_P2
2022/04/30 00:00:01;;;;;;;5.82;5.32;;;1.90;99.90;2.30;99218.00;;;;4982868;28;82496;-55
2022/04/30 00:02:29;;;;;;;6.10;5.55;;;1.90;99.90;2.30;99214.00;;;;4981513;28;83166;-52
2022/04/30 00:04:55;;;;;;;6.65;5.50;;;1.90;99.90;2.30;99211.00;;;;4982391;28;82074;-55
2022/04/30 00:07:59;;;;;;;7.20;5.88;;;1.80;99.90;2.20;99208.00;;;;4982255;28;82199;-55
2022/04/30 00:10:53;;;;;;;6.85;6.10;;;1.80;99.90;2.20;99202.00;;;;4983849;28;83674;-56
2022/04/30 00:14:35;;;;;;;6.90;6.18;;;1.70;99.90;2.20;99213.00;;;;4981912;28;82891;-54
2022/04/30 00:17:26;;;;;;;6.85;6.25;;;1.80;99.90;2.10;99214.00;;;;4982185;28;82747;-55
2022/04/30 00:19:53;;;;;;;7.07;6.30;;;1.70;99.90;2.10;99211.00;;;;4982168;28;82702;-54
2022/04/30 00:22:43;;;;;;;7.65;6.28;;;1.70;99.90;2.10;99212.00;;;;4981435;28;82666;-53
2022/04/30 00:25:28;;;;;;;6.50;5.90;;;1.60;99.90;2.10;99207.00;;;;4982614;28;82425;-54
2022/04/30 00:28:46;;;;;;;6.10;5.53;;;1.60;99.90;2.00;99214.00;;;;4980022;28;82376;-58
2022/04/30 00:31:40;;;;;;;7.68;5.80;;;1.60;99.90;2.00;99212.00;;;;4983465;28;83849;-58
2022/04/30 00:34:06;;;;;;;6.78;6.05;;;1.50;99.90;2.00;99209.00;;;;4982335;28;82607;-53
2022/04/30 00:37:02;;;;;;;7.05;5.95;;;1.50;99.90;2.00;99211.00;;;;4983133;28;82975;-55
2022/04/30 00:39:47;;;;;;;6.30;5.70;;;1.50;99.90;2.10;99222.00;;;;4982075;28;82894;-55
2022/04/30 00:42:13;;;;;;;6.10;5.55;;;1.60;99.90;2.10;99221.00;;;;4998270;28;82458;-56
2022/04/30 00:44:40;;;;;;;5.90;5.25;;;1.60;99.90;2.00;99211.00;;;;4982426;28;82547;-53
2022/04/30 00:47:06;;;;;;;5.60;5.10;;;1.60;99.90;2.00;99209.00;;;;4982388;28;82924;-51
2022/04/30 00:49:51;;;;;;;5.10;4.70;;;1.60;99.90;1.90;99200.00;;;;4982746;28;82417;-54
2022/04/30 00:52:17;;;;;;;5.97;5.07;;;1.50;99.90;1.90;99214.00;;;;4982849;28;82386;-53
2022/04/30 00:54:50;;;;;;;5.13;4.50;;;1.50;99.90;1.80;99202.00;;;;4982657;28;82639;-55
2022/04/30 00:57:28;;;;;;;5.25;4.30;;;1.50;99.90;1.80;99216.00;;;;4983227;28;82385;-54
2022/04/30 01:00:18;;;;;;;4.50;3.92;;;1.50;99.90;1.80;99209.00;;;;4981244;28;83315;-56
2022/04/30 01:03:00;;;;;;;4.35;3.97;;;1.40;99.90;1.70;99209.00;;;;5001813;28;83638;-56
2022/04/30 01:05:52;;;;;;;5.03;3.95;;;1.40;99.90;1.70;99216.00;;;;4994224;28;83800;-53
2022/04/30 01:08:56;;;;;;;4.53;4.07;;;1.30;99.90;1.70;99216.00;;;;4985828;28;83131;-53
2022/04/30 01:11:49;;;;;;;4.80;4.38;;;1.30;99.90;1.70;99222.00;;;;4974161;28;82342;-53
2022/04/30 01:14:59;;;;;;;4.82;4.32;;;1.30;99.90;1.60;99211.00;;;;4984593;28;82434;-54
2022/04/30 01:18:46;;;;;;;5.15;4.65;;;1.20;99.90;1.50;99220.00;;;;4985326;28;82647;-55
2022/04/30 01:21:50;;;;;;;4.95;4.22;;;1.20;99.90;1.60;99219.00;;;;5000322;28;83509;-51
2022/04/30 01:24:26;;;;;;;5.90;5.30;;;1.20;99.90;1.60;99212.00;;;;4984404;28;82114;-54
2022/04/30 01:27:35;;;;;;;5.45;4.95;;;1.20;99.90;1.60;99209.00;;;;4984419;28;82841;-55
2022/04/30 01:37:23;;;;;;;5.53;4.97;;;1.10;99.90;1.50;99226.00;;;;4985182;28;82962;-54
2022/04/30 01:40:05;;;;;;;7.53;5.35;;;1.10;99.90;1.50;99220.00;;;;4985477;28;82296;-55
2022/04/30 01:42:40;;;;;;;5.82;5.32;;;1.10;99.90;1.50;99229.00;;;;4985394;28;83258;-53
2022/04/30 01:45:08;;;;;;;5.97;5.40;;;1.10;99.90;1.60;99228.00;;;;4983713;28;83908;-55
2022/04/30 01:47:39;;;;;;;5.70;5.00;;;1.10;99.90;1.60;99227.00;;;;4985037;28;82300;-55
2022/04/30 01:50:07;;;;;;;5.83;5.23;;;1.10;99.90;1.70;99222.00;;;;4984886;28;83572;-60
2022/04/30 01:52:33;;;;;;;5.63;5.13;;;1.10;99.90;1.70;99222.00;;;;4985269;28;82666;-60
2022/04/30 01:55:00;;;;;;;5.88;5.38;;;1.20;99.90;1.60;99224.00;;;;4985249;28;83058;-59
2022/04/30 01:57:27;;;;;;;5.68;5.18;;;1.20;99.90;1.60;99226.00;;;;4985149;28;82077;-59
2022/04/30 01:59:54;;;;;;;5.32;4.82;;;1.20;99.90;1.60;99233.00;;;;4984313;28;82327;-54
2022/04/30 02:02:24;;;;;;;6.07;5.47;;;1.20;99.90;1.70;99228.00;;;;4984748;28;83333;-55
2022/04/30 02:04:57;;;;;;;5.28;4.78;;;1.20;99.90;1.60;99241.00;;;;4983972;28;83334;-60
2022/04/30 02:07:27;;;;;;;6.07;4.88;;;1.10;99.90;1.50;99229.00;;;;4985241;28;82330;-57
2022/04/30 02:09:53;;;;;;;5.38;4.88;;;1.10;99.90;1.50;99219.00;;;;4984755;28;82367;-58
2022/04/30 02:12:19;;;;;;;4.85;4.45;;;1.10;99.90;1.50;99235.00;;;;4984530;28;82736;-56
2022/04/30 02:14:51;;;;;;;6.18;4.90;;;1.10;99.90;1.60;99237.00;;;;5000515;28;82386;-56
2022/04/30 02:17:20;;;;;;;5.57;4.55;;;1.10;99.90;1.70;99233.00;;;;4984567;28;81837;-53
2022/04/30 02:22:34;;;;;;;5.75;4.93;;;1.20;99.90;1.70;99232.00;;;;4983161;28;82678;-53
2022/04/30 02:25:01;;;;;;;5.20;4.70;;;1.20;99.90;1.80;99238.00;;;;4983298;28;82303;-54
2022/04/30 02:27:31;;;;;;;5.07;4.57;;;1.30;99.90;1.80;99242.00;;;;4987634;28;82860;-51
2022/04/30 02:29:57;;;;;;;5.72;4.93;;;1.30;99.90;1.70;99236.00;;;;4983258;28;82923;-54
2022/04/30 02:32:23;;;;;;;5.05;4.07;;;1.20;99.90;1.80;99239.00;;;;4984431;28;83060;-54
2022/04/30 02:34:49;;;;;;;4.68;3.88;;;1.30;99.90;1.80;99245.00;;;;4983353;28;82860;-53
2022/04/30 02:37:15;;;;;;;4.82;4.30;;;1.30;99.90;1.80;99244.00;;;;4984297;28;82251;-52
2022/04/30 02:39:48;;;;;;;5.40;4.50;;;1.30;99.90;1.80;99246.00;;;;4984514;28;82461;-53
2022/04/30 02:44:29;;;;;;;5.25;4.30;;;1.20;99.90;1.80;99252.00;;;;5063596;27;82221;-55
2022/04/30 02:46:56;;;;;;;4.78;4.05;;;1.20;99.90;1.80;99245.00;;;;5040365;28;81636;-55
2022/04/30 02:49:22;;;;;;;5.13;4.63;;;1.20;99.90;1.60;99257.00;;;;5040741;28;81642;-54
2022/04/30 02:51:51;;;;;;;5.47;4.07;;;1.20;99.90;1.50;99259.00;;;;5040367;28;82379;-53
2022/04/30 02:54:17;;;;;;;6.47;5.50;;;1.10;99.90;1.50;99255.00;;;;5039969;28;81808;-51
2022/04/30 02:56:43;;;;;;;5.13;4.63;;;1.00;99.90;1.60;99266.00;;;;5040815;28;81516;-55
2022/04/30 03:01:56;;;;;;;5.90;5.30;;;1.00;99.90;1.60;99262.00;;;;5039090;28;83613;-53
2022/04/30 03:04:43;;;;;;;5.68;5.20;;;1.10;99.90;1.50;99258.00;;;;5039288;27;83182;-52
2022/04/30 03:07:11;;;;;;;5.35;4.85;;;1.00;99.90;1.50;99263.00;;;;5039460;28;82167;-52
2022/04/30 03:09:40;;;;;;;5.88;5.30;;;1.00;99.90;1.50;99268.00;;;;5037899;27;82062;-51
2022/04/30 03:12:09;;;;;;;5.30;4.80;;;1.00;99.90;1.60;99274.00;;;;5039984;27;82295;-53
2022/04/30 03:14:36;;;;;;;5.53;4.70;;;1.00;99.90;1.70;99273.00;;;;5039907;28;82322;-51
2022/04/30 03:22:32;;;;;;;4.85;4.10;;;1.20;99.90;1.70;99279.00;;;;5037118;28;82264;-56
2022/04/30 03:24:58;;;;;;;3.90;3.60;;;1.20;99.90;1.60;99279.00;;;;5039056;28;82358;-54
2022/04/30 03:27:24;;;;;;;3.47;3.22;;;1.10;99.90;1.60;99282.00;;;;5055128;27;82621;-51
2022/04/30 03:29:51;;;;;;;3.60;3.30;;;1.10;99.90;1.70;99277.00;;;;5038924;28;81688;-56
2022/04/30 03:32:20;;;;;;;5.30;3.45;;;1.20;99.90;1.80;99275.00;;;;5039803;28;82374;-57
2022/04/30 03:34:47;;;;;;;3.63;3.33;;;1.30;99.90;1.80;99277.00;;;;5039139;28;82135;-56
2022/04/30 03:37:13;;;;;;;3.17;2.80;;;1.30;99.90;1.90;99289.00;;;;5039730;28;81598;-58
2022/04/30 03:39:40;;;;;;;2.92;2.63;;;1.40;99.90;2.00;99288.00;;;;5039532;28;82057;-56
2022/04/30 03:42:06;;;;;;;3.47;3.08;;;1.40;99.90;2.10;99295.00;;;;5039258;28;82277;-54
2022/04/30 03:44:33;;;;;;;3.85;3.45;;;1.50;99.90;2.10;99269.00;;;;5039736;28;81891;-55
2022/04/30 03:46:59;;;;;;;5.55;3.25;;;1.60;99.90;2.30;99285.00;;;;5039353;28;81707;-54
2022/04/30 03:49:25;;;;;;;3.97;3.10;;;1.70;99.90;2.30;99287.00;;;;5039040;28;81615;-54
2022/04/30 03:51:51;;;;;;;4.45;3.22;;;1.70;99.90;2.40;99288.00;;;;5039346;28;82213;-55
2022/04/30 03:54:17;;;;;;;3.60;3.20;;;1.70;99.90;2.40;99285.00;;;;5033857;28;81871;-55
2022/04/30 03:56:43;;;;;;;4.75;3.45;;;1.60;99.90;2.50;99305.00;;;;5026309;28;81655;-55
2022/04/30 03:59:09;;;;;;;5.28;3.58;;;1.70;99.90;2.70;99290.00;;;;5025205;28;81686;-55
2022/04/30 04:01:37;;;;;;;5.93;3.00;;;1.90;99.90;3.00;99299.00;;;;5025511;28;82424;-57
2022/04/30 04:04:04;;;;;;;4.22;2.88;;;2.00;99.90;2.90;99300.00;;;;5025942;28;81910;-56
2022/04/30 04:06:31;;;;;;;4.22;3.13;;;2.10;99.90;2.90;99295.00;;;;5041728;28;82187;-57
2022/04/30 04:08:59;;;;;;;5.22;3.25;;;2.00;99.90;2.90;99289.00;;;;5029175;28;81896;-55
2022/04/30 04:11:26;;;;;;;4.65;3.33;;;2.10;99.90;3.00;99308.00;;;;5025353;28;83658;-56
2022/04/30 04:19:25;;;;;;;6.88;3.25;;;2.20;99.90;3.30;99299.00;;;;5025183;28;81695;-56
2022/04/30 04:21:52;;;;;;;3.47;2.78;;;2.40;99.90;3.70;99322.00;;;;5024393;28;82337;-57
2022/04/30 04:27:03;;;;;;;4.10;2.58;;;2.70;99.90;4.10;99316.00;;;;5023556;28;82278;-57
2022/04/30 04:29:29;;;;;;;2.20;2.00;;;2.80;99.90;3.50;99332.00;;;;5025009;28;81662;-56
2022/04/30 04:31:55;;;;;;;3.25;2.30;;;2.50;99.90;3.10;99325.00;;;;5023969;28;82118;-57
2022/04/30 04:34:21;;;;;;;3.53;2.40;;;2.20;99.90;3.00;99328.00;;;;5025124;28;82641;-55
2022/04/30 04:36:48;;;;;;;2.85;2.38;;;2.20;99.90;3.00;99313.00;;;;5024321;28;82481;-56
2022/04/30 04:39:15;;;;;;;3.97;2.42;;;2.10;99.90;2.80;99324.00;;;;5024491;28;81607;-58
2022/04/30 04:41:43;;;;;;;3.95;2.38;;;2.00;99.90;2.90;99330.00;;;;5025236;28;82253;-58
2022/04/30 04:44:11;;;;;;;2.97;2.58;;;2.10;99.90;3.00;99332.00;;;;5023879;28;82039;-52
2022/04/30 04:46:41;;;;;;;2.17;1.90;;;2.10;99.90;2.90;99332.00;;;;5024931;28;81881;-54
2022/04/30 04:49:09;;;;;;;2.42;2.10;;;2.00;99.90;3.00;99327.00;;;;5024979;28;81640;-58
2022/04/30 04:51:35;;;;;;;4.38;2.22;;;2.10;99.90;3.70;99341.00;;;;5024448;28;83615;-58
2022/04/30 04:54:02;;;;;;;4.00;2.30;;;2.40;99.90;3.40;99354.00;;;;5024691;28;81751;-56
2022/04/30 04:56:30;;;;;;;3.95;2.60;;;2.30;99.90;3.20;99347.00;;;;5024659;28;82810;-53
2022/04/30 04:58:56;;;;;;;3.53;2.10;;;2.30;99.90;3.10;99344.00;;;;5024592;28;81917;-53
2022/04/30 05:01:23;;;;;;;3.97;2.25;;;2.20;99.90;3.00;99343.00;;;;5025234;28;82505;-56
2022/04/30 05:03:49;;;;;;;3.38;2.20;;;2.20;99.90;3.10;99342.00;;;;5025310;28;81991;-55
2022/04/30 05:06:15;;;;;;;4.65;2.50;;;2.30;99.90;3.30;99347.00;;;;5022318;28;81736;-53
2022/04/30 05:08:41;;;;;;;3.00;2.00;;;2.40;99.90;2.90;99350.00;;;;5023073;28;82940;-56
2022/04/30 05:11:08;;;;;;;1.95;1.77;;;2.20;99.90;3.20;99345.00;;;;5024735;28;84329;-54
2022/04/30 05:13:34;;;;;;;2.95;2.28;;;2.40;99.90;3.00;99356.00;;;;5024571;28;81964;-57
2022/04/30 05:16:00;;;;;;;4.05;2.30;;;2.30;99.90;3.20;99348.00;;;;5023544;28;82280;-56
2022/04/30 05:18:26;;;;;;;2.65;2.00;;;2.40;99.90;3.20;99355.00;;;;5024397;28;81620;-55
2022/04/30 05:20:53;;;;;;;3.55;2.40;;;2.50;99.90;3.70;99347.00;;;;5023299;28;82849;-55
2022/04/30 05:23:19;;;;;;;6.82;2.28;;;2.80;99.90;4.10;99358.00;;;;5022137;28;81973;-55
2022/04/30 05:25:45;;;;;;;1.83;1.60;;;3.20;99.90;4.00;99357.00;;;;5018267;28;81516;-53
2022/04/30 05:28:12;;;;;;;3.92;1.60;;;3.10;99.90;4.00;99355.00;;;;5024171;28;82341;-55
2022/04/30 05:30:38;;;;;;;2.22;1.88;;;3.10;99.90;4.10;99354.00;;;;5039801;28;83628;-56
2022/04/30 05:33:05;;;;;;;4.50;2.88;;;3.20;99.90;4.20;99330.00;;;;5024228;28;82394;-56
2022/04/30 05:35:31;;;;;;;5.45;1.70;;;3.40;99.90;4.30;99333.00;;;;5023878;28;82175;-53
2022/04/30 05:37:57;;;;;;;3.75;2.00;;;3.50;99.90;4.40;99343.00;;;;5024131;28;81743;-55
2022/04/30 05:40:23;;;;;;;2.28;1.70;;;3.80;99.90;4.10;99354.00;;;;5022892;28;83590;-57
2022/04/30 05:42:49;;;;;;;2.85;1.90;;;3.40;99.90;4.10;99354.00;;;;5023333;28;81872;-55
2022/04/30 05:45:16;;;;;;;1.80;1.50;;;3.40;99.90;3.90;99347.00;;;;5025239;28;81442;-54
2022/04/30 05:47:42;;;;;;;4.97;1.90;;;3.10;99.90;3.80;99358.00;;;;5021886;28;81652;-54
2022/04/30 05:50:09;;;;;;;1.85;1.70;;;3.00;99.90;3.70;99343.00;;;;5018968;28;83806;-57
2022/04/30 05:52:35;;;;;;;3.03;1.90;;;3.00;99.90;3.80;99348.00;;;;5022737;28;84369;-56
2022/04/30 05:55:03;;;;;;;2.95;1.80;;;3.00;99.90;4.10;99359.00;;;;5017491;28;81657;-55
2022/04/30 05:57:30;;;;;;;1.95;1.45;;;3.40;99.90;4.10;99342.00;;;;5022194;28;82035;-56
2022/04/30 05:59:57;;;;;;;4.72;1.80;;;3.40;99.90;4.30;99357.00;;;;5021789;28;82453;-56
2022/04/30 06:02:24;;;;;;;2.90;1.88;;;3.60;99.90;4.50;99350.00;;;;5020029;28;81592;-56
2022/04/30 06:04:50;;;;;;;4.45;2.85;;;3.80;99.90;4.90;99351.00;;;;5014461;28;82805;-55
2022/04/30 06:07:17;;;;;;;10.40;2.90;;;4.20;99.90;4.90;99349.00;;;;5021432;28;81540;-54
2022/04/30 06:09:44;;;;;;;2.88;2.30;;;4.30;99.90;5.10;99351.00;;;;5023411;28;83935;-54
2022/04/30 06:12:10;;;;;;;3.75;2.42;;;4.30;99.90;5.30;99356.00;;;;5023653;28;82034;-56
2022/04/30 06:14:36;;;;;;;5.85;2.80;;;4.50;99.90;5.30;99366.00;;;;5023463;28;81577;-55
2022/04/30 06:17:03;;;;;;;3.35;2.10;;;4.60;99.90;5.20;99361.00;;;;5022430;28;82210;-57
2022/04/30 06:19:29;;;;;;;2.00;1.60;;;4.40;99.90;4.70;99371.00;;;;5023623;28;82277;-57
2022/04/30 06:21:55;;;;;;;3.25;1.80;;;4.00;99.90;4.80;99358.00;;;;5022646;28;82006;-57
2022/04/30 06:24:22;;;;;;;5.30;1.65;;;4.10;99.90;5.00;99357.00;;;;5021665;28;81606;-52
2022/04/30 06:26:48;;;;;;;2.70;1.80;;;4.20;99.90;5.00;99361.00;;;;5022756;28;82194;-55
2022/04/30 06:29:14;;;;;;;4.20;1.75;;;4.20;99.90;5.00;99359.00;;;;5020642;28;82224;-57
2022/04/30 06:31:40;;;;;;;6.18;2.20;;;4.30;99.90;5.10;99352.00;;;;5021701;28;82409;-56
2022/04/30 06:34:06;;;;;;;4.57;1.75;;;4.50;99.90;5.40;99348.00;;;;5019989;28;82354;-55
2022/04/30 06:36:33;;;;;;;3.85;1.90;;;4.70;99.90;5.70;99364.00;;;;5021764;28;81642;-55
2022/04/30 06:38:59;;;;;;;4.75;1.80;;;4.90;99.90;5.60;99368.00;;;;5021698;28;82334;-56
2022/04/30 06:41:25;;;;;;;7.35;2.17;;;4.90;99.90;5.80;99365.00;;;;5020815;28;82017;-57
2022/04/30 06:43:51;;;;;;;3.78;1.63;;;5.00;99.90;5.40;99378.00;;;;5021744;28;81943;-56
2022/04/30 06:46:18;;;;;;;1.30;1.20;;;4.60;99.90;5.10;99367.00;;;;5020395;28;81747;-55
2022/04/30 06:48:47;;;;;;;1.10;1.02;;;4.40;99.90;5.00;99352.00;;;;5021231;28;82391;-54
2022/04/30 06:51:13;;;;;;;2.30;1.40;;;4.30;99.90;4.90;99374.00;;;;5019758;28;82740;-56
2022/04/30 06:59:11;;;;;;;7.13;1.73;;;4.60;99.90;5.50;99365.00;;;;5018348;28;82289;-58
2022/04/30 07:01:44;;;;;;;4.38;1.88;;;4.70;99.90;5.60;99364.00;;;;5016025;28;83549;-53
2022/04/30 07:04:11;;;;;;;3.15;1.40;;;4.90;99.90;5.50;99361.00;;;;5018311;28;83499;-54
2022/04/30 07:06:38;;;;;;;2.20;1.27;;;4.80;99.90;5.50;99356.00;;;;5016903;28;81952;-54
2022/04/30 07:09:07;;;;;;;2.47;1.50;;;4.80;99.90;5.60;99358.00;;;;5026697;27;83751;-55
2022/04/30 07:11:34;;;;;;;5.35;1.23;;;4.90;99.90;5.70;99345.00;;;;5017291;28;82763;-57
2022/04/30 07:14:00;;;;;;;1.98;1.00;;;4.90;99.90;5.90;99360.00;;;;5020499;28;82337;-55
2022/04/30 07:16:26;;;;;;;0.90;0.85;;;5.00;99.90;6.10;99362.00;;;;5013022;28;82344;-56
2022/04/30 07:18:53;;;;;;;4.03;1.00;;;5.30;99.90;6.00;99349.00;;;;5019166;28;82263;-57
2022/04/30 07:21:19;;;;;;;1.13;0.80;;;5.20;99.90;6.10;99351.00;;;;5015142;28;82117;-57
2022/04/30 07:23:46;;;;;;;4.82;1.42;;;5.30;99.90;5.80;99373.00;;;;5019789;28;82596;-57
2022/04/30 07:26:12;;;;;;;1.52;1.00;;;5.00;99.90;5.80;99375.00;;;;5012727;28;82751;-54
2022/04/30 07:28:38;;;;;;;1.02;0.80;;;5.00;99.90;5.50;99357.00;;;;5017116;28;82287;-55
2022/04/30 07:31:05;;;;;;;2.33;1.20;;;4.80;99.90;5.60;99365.00;;;;5017312;28;83398;-52
2022/04/30 07:33:32;;;;;;;2.47;1.20;;;4.90;99.90;5.70;99374.00;;;;5015880;28;83283;-58
2022/04/30 07:35:58;;;;;;;2.53;1.00;;;4.90;99.90;5.90;99366.00;;;;5017697;28;82249;-56
2022/04/30 07:38:24;;;;;;;7.13;1.67;;;5.10;99.90;6.00;99377.00;;;;5014232;28;82689;-56
2022/04/30 07:40:52;;;;;;;3.63;1.00;;;5.20;99.90;6.20;99377.00;;;;5022809;28;82655;-55
2022/04/30 07:43:19;;;;;;;3.60;1.27;;;5.30;99.90;6.20;99370.00;;;;5021754;28;82408;-56
2022/04/30 07:45:45;;;;;;;2.38;0.90;;;5.40;99.90;5.90;99371.00;;;;5024193;28;82346;-56
2022/04/30 07:48:11;;;;;;;4.50;0.90;;;5.10;97.20;5.80;99360.00;;;;5023822;28;82889;-56
2022/04/30 07:50:38;;;;;;;3.63;1.30;;;5.10;99.90;6.10;99364.00;;;;5021628;28;83957;-54
2022/04/30 07:53:08;;;;;;;1.92;1.00;;;5.30;99.90;6.10;99366.00;;;;5024290;28;83452;-53
2022/04/30 07:55:34;;;;;;;5.25;1.20;;;5.20;99.90;6.10;99376.00;;;;5023614;28;82877;-55
2022/04/30 07:58:02;;;;;;;2.10;0.95;;;5.20;99.90;5.50;99375.00;;;;5024827;28;82237;-58
2022/04/30 08:00:29;;;;;;;3.60;1.15;;;4.80;99.90;5.40;99362.00;;;;5023881;28;83588;-57
2022/04/30 08:02:57;;;;;;;2.97;1.13;;;4.70;99.90;5.60;99374.00;;;;5024592;28;82143;-56
2022/04/30 08:05:27;;;;;;;3.95;1.30;;;4.80;99.90;5.70;99382.00;;;;5023816;28;83629;-58
2022/04/30 08:07:56;;;;;;;3.47;1.40;;;4.90;99.90;5.70;99367.00;;;;5025076;28;83480;-57
2022/04/30 08:10:23;;;;;;;2.88;1.13;;;4.90;99.90;5.80;99373.00;;;;5025823;28;82466;-58
2022/04/30 08:12:54;;;;;;;4.13;1.30;;;5.00;99.90;5.90;99369.00;;;;5029219;28;82796;-57
2022/04/30 08:15:24;;;;;;;7.63;1.30;;;5.10;99.90;6.10;99356.00;;;;5022751;28;83002;-58
2022/04/30 08:17:54;;;;;;;4.80;1.50;;;5.20;99.90;6.70;99349.00;;;;5023312;28;81991;-55
2022/04/30 08:20:20;;;;;;;3.60;1.10;;;5.80;99.90;7.00;99347.00;;;;5021483;28;85336;-58
2022/04/30 08:22:47;;;;;;;7.45;1.63;;;6.10;99.90;7.40;99349.00;;;;5022277;28;83066;-54
2022/04/30 08:25:13;;;;;;;5.05;1.48;;;6.40;99.90;7.60;99347.00;;;;5022814;28;82286;-56
2022/04/30 08:27:40;;;;;;;6.10;1.35;;;6.60;99.90;7.90;99357.00;;;;5022265;28;82946;-57
2022/04/30 08:30:07;;;;;;;3.88;1.42;;;6.80;99.40;7.80;99362.00;;;;5023266;28;82886;-56
2022/04/30 08:32:34;;;;;;;4.13;1.33;;;6.80;97.50;7.50;99361.00;;;;5024084;28;84359;-55
2022/04/30 08:35:01;;;;;;;5.55;1.20;;;6.50;97.00;7.20;99366.00;;;;5021090;28;82420;-57
2022/04/30 08:37:29;;;;;;;3.10;1.40;;;6.20;98.00;7.00;99359.00;;;;5022206;28;82508;-59
2022/04/30 08:39:55;;;;;;;8.45;1.85;;;6.10;99.20;6.90;99353.00;;;;5018671;28;83634;-55
2022/04/30 08:42:24;;;;;;;4.60;1.65;;;6.00;99.90;7.10;99346.00;;;;5020356;28;86054;-58
2022/04/30 08:44:50;;;;;;;4.25;1.90;;;6.20;99.90;7.40;99347.00;;;;5019636;28;84536;-62
2022/04/30 08:47:16;;;;;;;3.42;1.55;;;6.50;99.30;7.70;99350.00;;;;5018483;28;83477;-53
2022/04/30 08:49:42;;;;;;;2.88;1.10;;;6.80;99.70;7.70;99357.00;;;;5022980;28;82745;-55
2022/04/30 08:52:12;;;;;;;3.95;1.52;;;6.70;94.70;7.40;99352.00;;;;5018064;28;82263;-56
2022/04/30 08:54:38;;;;;;;1.90;1.27;;;6.60;93.20;7.20;99355.00;;;;5030520;28;82114;-55
2022/04/30 08:57:05;;;;;;;2.38;0.90;;;6.40;91.70;6.70;99360.00;;;;5012764;28;82214;-53
2022/04/30 08:59:31;;;;;;;3.60;1.45;;;6.00;94.10;6.70;99365.00;;;;5022353;28;82724;-53
2022/04/30 09:01:58;;;;;;;5.38;1.40;;;5.80;95.60;6.70;99357.00;;;;5016256;28;82317;-55
2022/04/30 09:04:26;;;;;;;6.22;3.33;;;5.90;96.60;6.80;99343.00;;;;5023581;27;83831;-54
2022/04/30 09:06:55;;;;;;;3.78;1.35;;;6.00;96.20;6.90;99361.00;;;;5017086;28;82109;-54
2022/04/30 09:09:23;;;;;;;3.30;1.15;;;6.10;96.10;6.90;99352.00;;;;5021190;28;83156;-58
2022/04/30 09:11:50;;;;;;;3.47;1.10;;;6.10;96.30;6.80;99351.00;;;;5024925;28;82326;-56
2022/04/30 09:14:27;;;;;;;4.20;1.35;;;5.80;96.60;6.70;99337.00;;;;5020435;28;83657;-57
2022/04/30 09:17:07;;;;;;;2.35;1.10;;;5.80;96.80;6.60;99345.00;;;;5018281;28;82168;-56
2022/04/30 09:20:12;;;;;;;3.50;1.17;;;5.80;96.20;6.70;99356.00;;;;5020977;28;83762;-57
2022/04/30 09:22:38;;;;;;;6.15;1.40;;;5.90;97.80;6.90;99337.00;;;;5016132;28;82698;-58
2022/04/30 09:25:12;;;;;;;3.10;1.60;;;6.00;96.70;7.10;99355.00;;;;5020865;28;82053;-52
2022/04/30 09:27:49;;;;;;;3.90;1.33;;;6.20;96.10;7.00;99348.00;;;;5016667;28;82334;-57
2022/04/30 09:30:29;;;;;;;7.25;1.50;;;6.10;94.90;7.10;99342.00;;;;5014841;28;83484;-55
2022/04/30 09:33:05;;;;;;;7.13;1.52;;;6.40;93.70;7.70;99327.00;;;;5016695;28;84259;-55
2022/04/30 09:38:23;;;;;;;5.20;0.95;;;7.30;89.40;8.20;99330.00;;;;5022585;28;82033;-56
2022/04/30 09:40:59;;;;;;;1.95;1.13;;;7.20;83.10;8.10;99332.00;;;;5016538;28;82792;-55
2022/04/30 09:43:30;;;;;;;8.93;1.77;;;7.20;84.10;8.10;99326.00;;;;5019959;28;83432;-56
2022/04/30 09:46:01;;;;;;;3.67;1.30;;;7.20;86.30;8.00;99330.00;;;;5018991;28;82444;-57
2022/04/30 09:56:20;;;;;;;2.88;1.00;;;6.40;86.30;7.60;99318.00;;;;5037388;27;82178;-60
2022/04/30 09:58:46;;;;;;;3.55;1.23;;;6.70;84.40;8.10;99320.00;;;;5039100;27;83960;-60
2022/04/30 10:01:13;;;;;;;3.97;1.35;;;7.10;84.80;8.00;99337.00;;;;5038837;28;82986;-60
2022/04/30 10:03:42;;;;;;;1.42;1.02;;;7.10;79.20;7.70;99345.00;;;;5040335;28;82628;-59
2022/04/30 10:06:08;;;;;;;5.05;1.30;;;6.90;80.60;7.50;99342.00;;;;5041157;27;81551;-59
2022/04/30 10:08:40;;;;;;;3.17;1.20;;;6.60;82.20;7.20;99348.00;;;;5044242;27;81711;-60
2022/04/30 10:11:34;;;;;;;1.42;1.10;;;6.40;81.80;7.00;99334.00;;;;5039042;28;82386;-59
2022/04/30 10:14:30;;;;;;;2.10;1.33;;;6.20;83.80;7.00;99351.00;;;;5040268;27;82194;-58
2022/04/30 10:17:13;;;;;;;5.03;1.33;;;6.20;88.20;7.10;99334.00;;;;5033378;28;81887;-58
2022/04/30 10:19:45;;;;;;;2.65;1.33;;;6.30;89.50;7.20;99325.00;;;;5040155;27;81648;-60
2022/04/30 10:22:16;;;;;;;2.33;1.20;;;6.40;87.70;7.10;99340.00;;;;5038913;28;84359;-57
2022/04/30 10:24:46;;;;;;;3.65;1.20;;;6.30;86.50;7.20;99341.00;;;;5038725;27;82844;-58
2022/04/30 10:27:13;;;;;;;2.30;1.20;;;6.40;84.00;7.10;99340.00;;;;5039093;28;81577;-61
2022/04/30 10:29:55;;;;;;;1.63;1.10;;;6.30;83.90;7.30;99342.00;;;;5039567;28;81746;-58
2022/04/30 10:32:31;;;;;;;1.95;1.10;;;6.40;87.70;7.00;99336.00;;;;5037882;27;81839;-60
2022/04/30 10:34:59;;;;;;;1.80;1.38;;;6.30;90.00;7.00;99334.00;;;;5036145;27;82654;-56
2022/04/30 10:37:38;;;;;;;3.22;1.20;;;6.30;88.80;7.50;99329.00;;;;5040106;27;81637;-60
2022/04/30 10:40:09;;;;;;;1.63;1.02;;;6.60;88.10;7.70;99336.00;;;;5051100;27;81696;-59
2022/04/30 10:42:45;;;;;;;2.57;1.03;;;6.70;87.20;7.60;99338.00;;;;5042268;27;82298;-58
2022/04/30 10:45:15;;;;;;;4.38;1.50;;;6.70;87.20;7.70;99327.00;;;;5037580;27;82755;-57
2022/04/30 10:47:59;;;;;;;2.97;1.30;;;6.80;89.90;7.90;99328.00;;;;5038036;28;82159;-58
2022/04/30 10:50:25;;;;;;;2.53;1.10;;;7.10;87.60;7.90;99327.00;;;;5038879;28;81804;-59
2022/04/30 10:52:54;;;;;;;1.30;1.10;;;7.10;85.90;7.40;99326.00;;;;5041580;27;83110;-58
2022/04/30 10:55:21;;;;;;;2.78;1.20;;;6.80;83.10;7.40;99326.00;;;;5036260;28;81922;-55
2022/04/30 10:57:47;;;;;;;4.63;1.10;;;6.70;81.40;7.50;99319.00;;;;5045576;27;82022;-51
2022/04/30 11:00:15;;;;;;;5.00;1.38;;;6.70;81.00;7.80;99314.00;;;;5038068;28;81891;-57
2022/04/30 11:02:41;;;;;;;2.72;1.38;;;6.90;83.60;8.10;99315.00;;;;5017609;28;82376;-52
2022/04/30 11:05:24;;;;;;;5.53;1.67;;;7.20;84.40;8.40;99320.00;;;;5017835;28;82106;-54
2022/04/30 11:07:51;;;;;;;3.65;1.40;;;7.40;81.40;8.30;99323.00;;;;5025861;28;81446;-57
2022/04/30 11:10:18;;;;;;;2.60;1.10;;;7.30;80.00;8.00;99307.00;;;;5027469;28;82948;-55
2022/04/30 11:12:44;;;;;;;2.15;1.17;;;7.20;81.70;8.10;99317.00;;;;5030129;28;83529;-55
2022/04/30 11:15:13;;;;;;;3.00;1.38;;;7.30;84.80;8.00;99327.00;;;;5024069;28;82154;-53
2022/04/30 11:17:47;;;;;;;4.43;1.15;;;7.10;83.60;7.70;99321.00;;;;5025099;28;82049;-53
2022/04/30 11:20:22;;;;;;;4.05;1.10;;;6.90;84.60;7.70;99315.00;;;;5023825;28;81622;-56
2022/04/30 11:23:00;;;;;;;3.40;1.10;;;6.90;86.80;7.60;99309.00;;;;5023886;28;82418;-56
2022/04/30 11:25:38;;;;;;;2.95;1.20;;;6.80;85.50;7.50;99314.00;;;;5023461;28;82063;-56
2022/04/30 11:28:09;;;;;;;3.22;1.20;;;6.70;88.20;7.60;99319.00;;;;5022491;28;83146;-56
2022/04/30 11:30:37;;;;;;;3.15;1.25;;;6.80;87.10;7.50;99314.00;;;;5023936;28;81824;-53
2022/04/30 11:33:05;;;;;;;4.80;1.30;;;6.70;84.40;7.40;99334.00;;;;5023588;28;82972;-57
2022/04/30 11:35:31;;;;;;;3.72;1.10;;;6.60;89.00;7.10;99311.00;;;;5023279;28;81937;-56
2022/04/30 11:37:57;;;;;;;3.20;1.48;;;6.50;89.60;7.30;99320.00;;;;5022900;28;81623;-55
2022/04/30 11:40:27;;;;;;;5.13;2.22;;;6.50;91.40;7.20;99334.00;;;;5023754;28;81748;-56
2022/04/30 11:42:58;;;;;;;1.67;0.95;;;6.50;91.20;6.70;99337.00;;;;5024326;28;82933;-57
2022/04/30 11:45:31;;;;;;;1.33;0.90;;;6.20;90.50;6.80;99333.00;;;;5025296;28;82296;-54
2022/04/30 11:47:59;;;;;;;5.30;1.20;;;6.20;90.80;6.90;99319.00;;;;5019878;28;82854;-57
2022/04/30 11:50:29;;;;;;;1.50;1.20;;;6.20;91.40;7.00;99319.00;;;;5023708;28;82017;-58
2022/04/30 11:52:55;;;;;;;3.22;1.52;;;6.30;91.20;7.30;99315.00;;;;5022603;28;81776;-55
2022/04/30 11:55:22;;;;;;;4.20;1.42;;;6.40;90.30;7.40;99318.00;;;;5022936;28;81921;-59
2022/04/30 11:57:49;;;;;;;3.25;1.30;;;6.60;90.80;7.50;99325.00;;;;5024555;28;82043;-56
2022/04/30 12:00:20;;;;;;;3.55;1.33;;;6.70;89.00;7.30;99314.00;;;;5024575;28;82198;-54
2022/04/30 12:02:49;;;;;;;1.98;1.10;;;6.70;90.00;7.40;99318.00;;;;5004763;28;83265;-56
2022/04/30 12:05:16;;;;;;;2.95;1.30;;;6.60;90.30;7.40;99326.00;;;;5018886;28;82121;-53
2022/04/30 12:07:46;;;;;;;2.60;1.30;;;6.60;91.10;7.20;99332.00;;;;5025115;28;81681;-57
2022/04/30 12:10:24;;;;;;;3.67;1.10;;;6.50;91.80;7.20;99315.00;;;;5024262;28;81691;-54